sensor_id;sensor_type;location;lat;lon;timestamp;P1;durP1;ratioP1;P2;durP2;ratioP2
74102;SDS011;62853;46.166;3.640;2022-08-16T00:01:13;12.07;;;8.85;;
74102;SDS011;62853;46.166;3.640;2022-08-16T00:03:40;9.70;;;7.88;;
74102;SDS011;62853;46.166;3.640;2022-08-16T00:06:05;8.50;;;7.63;;
74102;SDS011;62853;46.166;3.640;2022-08-16T00:08:30;9.57;;;7.57;;
74102;SDS011;62853;46.166;3.640;2022-08-16T00:10:56;10.05;;;7.78;;
74102;SDS011;62853;46.166;3.640;2022-08-16T00:13:21;8.63;;;7.70;;
74102;SDS011;62853;46.166;3.640;2022-08-16T00:15:47;9.60;;;7.82;;
74102;SDS011;62853;46.166;3.640;2022-08-16T00:18:13;9.40;;;8.30;;
74102;SDS011;62853;46.166;3.640;2022-08-16T00:20:42;9.27;;;8.27;;
74102;SDS011;62853;46.166;3.640;2022-08-16T00:23:10;10.73;;;8.05;;
74102;SDS011;62853;46.166;3.640;2022-08-16T00:25:36;8.80;;;7.88;;
74102;SDS011;62853;46.166;3.640;2022-08-16T00:28:02;11.13;;;8.70;;
74102;SDS011;62853;46.166;3.640;2022-08-16T00:30:28;9.25;;;8.18;;
74102;SDS011;62853;46.166;3.640;2022-08-16T00:32:54;9.80;;;8.85;;
74102;SDS011;62853;46.166;3.640;2022-08-16T00:35:23;9.57;;;8.52;;
74102;SDS011;62853;46.166;3.640;2022-08-16T00:37:50;13.88;;;8.27;;
74102;SDS011;62853;46.166;3.640;2022-08-16T00:40:18;9.05;;;8.10;;
74102;SDS011;62853;46.166;3.640;2022-08-16T00:42:48;9.45;;;8.55;;
74102;SDS011;62853;46.166;3.640;2022-08-16T00:45:36;10.82;;;8.77;;
74102;SDS011;62853;46.166;3.640;2022-08-16T00:48:08;9.73;;;8.47;;
74102;SDS011;62853;46.166;3.640;2022-08-16T00:50:36;10.00;;;8.93;;
74102;SDS011;62853;46.166;3.640;2022-08-16T00:53:04;10.45;;;9.32;;
74102;SDS011;62853;46.166;3.640;2022-08-16T00:55:32;10.55;;;9.25;;
74102;SDS011;62853;46.166;3.640;2022-08-16T00:58:00;11.90;;;9.90;;
74102;SDS011;62853;46.166;3.640;2022-08-16T01:00:26;14.57;;;10.90;;
74102;SDS011;62853;46.166;3.640;2022-08-16T01:02:55;11.55;;;10.45;;
74102;SDS011;62853;46.166;3.640;2022-08-16T01:05:22;11.63;;;10.43;;
74102;SDS011;62853;46.166;3.640;2022-08-16T01:07:47;11.35;;;10.23;;
74102;SDS011;62853;46.166;3.640;2022-08-16T01:10:13;11.43;;;10.32;;
74102;SDS011;62853;46.166;3.640;2022-08-16T01:12:39;12.27;;;10.30;;
74102;SDS011;62853;46.166;3.640;2022-08-16T01:15:04;12.82;;;11.52;;
74102;SDS011;62853;46.166;3.640;2022-08-16T01:17:30;12.68;;;11.30;;
74102;SDS011;62853;46.166;3.640;2022-08-16T01:19:58;12.80;;;11.50;;
74102;SDS011;62853;46.166;3.640;2022-08-16T01:25:12;12.50;;;11.10;;
74102;SDS011;62853;46.166;3.640;2022-08-16T01:27:43;12.57;;;11.30;;
74102;SDS011;62853;46.166;3.640;2022-08-16T01:30:14;12.57;;;11.30;;
74102;SDS011;62853;46.166;3.640;2022-08-16T01:32:42;12.55;;;11.35;;
74102;SDS011;62853;46.166;3.640;2022-08-16T01:35:14;12.82;;;11.63;;
74102;SDS011;62853;46.166;3.640;2022-08-16T01:37:45;12.02;;;10.77;;
74102;SDS011;62853;46.166;3.640;2022-08-16T01:40:13;16.13;;;11.35;;
74102;SDS011;62853;46.166;3.640;2022-08-16T01:42:40;18.23;;;12.55;;
74102;SDS011;62853;46.166;3.640;2022-08-16T01:45:07;13.63;;;12.30;;
74102;SDS011;62853;46.166;3.640;2022-08-16T01:47:33;13.27;;;11.85;;
74102;SDS011;62853;46.166;3.640;2022-08-16T01:50:01;13.23;;;11.90;;
74102;SDS011;62853;46.166;3.640;2022-08-16T01:52:29;15.50;;;12.32;;
74102;SDS011;62853;46.166;3.640;2022-08-16T01:54:55;13.48;;;12.15;;
74102;SDS011;62853;46.166;3.640;2022-08-16T01:57:20;13.15;;;11.88;;
74102;SDS011;62853;46.166;3.640;2022-08-16T01:59:46;13.10;;;11.75;;
74102;SDS011;62853;46.166;3.640;2022-08-16T02:02:11;14.50;;;12.57;;
74102;SDS011;62853;46.166;3.640;2022-08-16T02:04:36;13.77;;;12.38;;
74102;SDS011;62853;46.166;3.640;2022-08-16T02:07:02;15.20;;;11.68;;
74102;SDS011;62853;46.166;3.640;2022-08-16T02:09:32;12.80;;;11.55;;
74102;SDS011;62853;46.166;3.640;2022-08-16T02:11:59;13.32;;;12.00;;
74102;SDS011;62853;46.166;3.640;2022-08-16T02:14:26;13.27;;;11.80;;
74102;SDS011;62853;46.166;3.640;2022-08-16T02:16:58;12.55;;;11.13;;
74102;SDS011;62853;46.166;3.640;2022-08-16T02:19:26;12.98;;;11.60;;
74102;SDS011;62853;46.166;3.640;2022-08-16T02:21:55;14.00;;;11.85;;
74102;SDS011;62853;46.166;3.640;2022-08-16T02:24:22;14.63;;;11.75;;
74102;SDS011;62853;46.166;3.640;2022-08-16T02:26:48;15.85;;;13.20;;
74102;SDS011;62853;46.166;3.640;2022-08-16T02:29:14;13.43;;;12.13;;
74102;SDS011;62853;46.166;3.640;2022-08-16T02:31:42;13.95;;;12.02;;
74102;SDS011;62853;46.166;3.640;2022-08-16T02:34:08;13.20;;;11.45;;
74102;SDS011;62853;46.166;3.640;2022-08-16T02:36:34;13.52;;;12.05;;
74102;SDS011;62853;46.166;3.640;2022-08-16T02:39:00;14.13;;;12.15;;
74102;SDS011;62853;46.166;3.640;2022-08-16T02:41:27;13.77;;;12.30;;
74102;SDS011;62853;46.166;3.640;2022-08-16T02:43:52;14.07;;;12.48;;
74102;SDS011;62853;46.166;3.640;2022-08-16T02:46:18;13.88;;;12.40;;
74102;SDS011;62853;46.166;3.640;2022-08-16T02:48:43;15.00;;;12.38;;
74102;SDS011;62853;46.166;3.640;2022-08-16T02:51:09;13.93;;;12.45;;
74102;SDS011;62853;46.166;3.640;2022-08-16T02:53:35;13.50;;;12.15;;
74102;SDS011;62853;46.166;3.640;2022-08-16T02:56:03;15.93;;;12.25;;
74102;SDS011;62853;46.166;3.640;2022-08-16T02:58:29;13.50;;;12.15;;
74102;SDS011;62853;46.166;3.640;2022-08-16T03:00:57;15.10;;;12.82;;
74102;SDS011;62853;46.166;3.640;2022-08-16T03:03:22;14.80;;;13.30;;
74102;SDS011;62853;46.166;3.640;2022-08-16T03:05:48;14.43;;;13.00;;
74102;SDS011;62853;46.166;3.640;2022-08-16T03:08:15;16.10;;;12.45;;
74102;SDS011;62853;46.166;3.640;2022-08-16T03:10:42;15.73;;;12.85;;
74102;SDS011;62853;46.166;3.640;2022-08-16T03:13:07;14.80;;;12.98;;
74102;SDS011;62853;46.166;3.640;2022-08-16T03:15:33;15.45;;;13.90;;
74102;SDS011;62853;46.166;3.640;2022-08-16T03:17:58;15.05;;;13.52;;
74102;SDS011;62853;46.166;3.640;2022-08-16T03:20:24;15.50;;;13.82;;
74102;SDS011;62853;46.166;3.640;2022-08-16T03:22:50;15.85;;;14.18;;
74102;SDS011;62853;46.166;3.640;2022-08-16T03:25:15;21.15;;;14.27;;
74102;SDS011;62853;46.166;3.640;2022-08-16T03:27:41;15.43;;;13.82;;
74102;SDS011;62853;46.166;3.640;2022-08-16T03:30:08;16.52;;;14.45;;
74102;SDS011;62853;46.166;3.640;2022-08-16T03:32:38;16.95;;;13.48;;
74102;SDS011;62853;46.166;3.640;2022-08-16T03:35:05;15.18;;;13.55;;
74102;SDS011;62853;46.166;3.640;2022-08-16T03:37:31;17.08;;;13.95;;
74102;SDS011;62853;46.166;3.640;2022-08-16T03:39:57;15.07;;;13.32;;
74102;SDS011;62853;46.166;3.640;2022-08-16T03:42:22;15.70;;;13.32;;
74102;SDS011;62853;46.166;3.640;2022-08-16T03:44:48;15.98;;;13.73;;
74102;SDS011;62853;46.166;3.640;2022-08-16T03:47:13;17.85;;;14.25;;
74102;SDS011;62853;46.166;3.640;2022-08-16T03:49:39;17.48;;;14.13;;
74102;SDS011;62853;46.166;3.640;2022-08-16T03:52:05;14.93;;;13.32;;
74102;SDS011;62853;46.166;3.640;2022-08-16T03:54:31;15.63;;;13.98;;
74102;SDS011;62853;46.166;3.640;2022-08-16T03:56:57;16.08;;;13.93;;
74102;SDS011;62853;46.166;3.640;2022-08-16T03:59:22;16.75;;;14.02;;
74102;SDS011;62853;46.166;3.640;2022-08-16T04:01:48;14.48;;;12.98;;
74102;SDS011;62853;46.166;3.640;2022-08-16T04:04:13;18.60;;;13.52;;
74102;SDS011;62853;46.166;3.640;2022-08-16T04:06:39;16.33;;;12.60;;
74102;SDS011;62853;46.166;3.640;2022-08-16T04:09:04;15.40;;;13.40;;
74102;SDS011;62853;46.166;3.640;2022-08-16T04:11:29;14.45;;;12.95;;
74102;SDS011;62853;46.166;3.640;2022-08-16T04:13:55;17.05;;;13.30;;
74102;SDS011;62853;46.166;3.640;2022-08-16T04:16:20;17.70;;;13.77;;
74102;SDS011;62853;46.166;3.640;2022-08-16T04:18:46;15.95;;;14.05;;
74102;SDS011;62853;46.166;3.640;2022-08-16T04:21:12;16.98;;;13.80;;
74102;SDS011;62853;46.166;3.640;2022-08-16T04:23:38;15.73;;;14.20;;
74102;SDS011;62853;46.166;3.640;2022-08-16T04:26:06;15.10;;;13.50;;
74102;SDS011;62853;46.166;3.640;2022-08-16T04:28:32;15.63;;;14.00;;
74102;SDS011;62853;46.166;3.640;2022-08-16T04:30:58;15.57;;;13.80;;
74102;SDS011;62853;46.166;3.640;2022-08-16T04:33:23;16.15;;;13.60;;
74102;SDS011;62853;46.166;3.640;2022-08-16T04:35:49;16.27;;;14.18;;
74102;SDS011;62853;46.166;3.640;2022-08-16T04:38:15;14.98;;;13.40;;
74102;SDS011;62853;46.166;3.640;2022-08-16T04:40:43;18.08;;;14.98;;
74102;SDS011;62853;46.166;3.640;2022-08-16T04:43:08;15.93;;;14.23;;
74102;SDS011;62853;46.166;3.640;2022-08-16T04:45:33;15.85;;;13.82;;
74102;SDS011;62853;46.166;3.640;2022-08-16T04:47:59;17.67;;;14.57;;
74102;SDS011;62853;46.166;3.640;2022-08-16T04:50:25;15.35;;;13.65;;
74102;SDS011;62853;46.166;3.640;2022-08-16T04:52:54;15.63;;;14.02;;
74102;SDS011;62853;46.166;3.640;2022-08-16T04:55:20;15.60;;;13.80;;
74102;SDS011;62853;46.166;3.640;2022-08-16T04:57:48;16.45;;;13.43;;
74102;SDS011;62853;46.166;3.640;2022-08-16T05:00:16;14.95;;;13.32;;
74102;SDS011;62853;46.166;3.640;2022-08-16T05:02:45;15.00;;;13.15;;
74102;SDS011;62853;46.166;3.640;2022-08-16T05:05:12;16.05;;;14.32;;
74102;SDS011;62853;46.166;3.640;2022-08-16T05:07:38;20.25;;;14.23;;
74102;SDS011;62853;46.166;3.640;2022-08-16T05:10:06;14.77;;;13.15;;
74102;SDS011;62853;46.166;3.640;2022-08-16T05:12:33;14.75;;;13.25;;
74102;SDS011;62853;46.166;3.640;2022-08-16T05:15:00;15.88;;;12.95;;
74102;SDS011;62853;46.166;3.640;2022-08-16T05:17:25;13.80;;;12.40;;
74102;SDS011;62853;46.166;3.640;2022-08-16T05:19:51;15.70;;;13.20;;
74102;SDS011;62853;46.166;3.640;2022-08-16T05:22:16;14.95;;;12.25;;
74102;SDS011;62853;46.166;3.640;2022-08-16T05:24:42;17.20;;;13.73;;
74102;SDS011;62853;46.166;3.640;2022-08-16T05:27:08;14.65;;;13.15;;
74102;SDS011;62853;46.166;3.640;2022-08-16T05:29:33;14.10;;;12.70;;
74102;SDS011;62853;46.166;3.640;2022-08-16T05:31:59;14.05;;;12.38;;
74102;SDS011;62853;46.166;3.640;2022-08-16T05:34:25;17.05;;;13.18;;
74102;SDS011;62853;46.166;3.640;2022-08-16T05:36:51;14.20;;;12.60;;
74102;SDS011;62853;46.166;3.640;2022-08-16T05:39:21;16.40;;;13.20;;
74102;SDS011;62853;46.166;3.640;2022-08-16T05:41:50;14.23;;;12.18;;
74102;SDS011;62853;46.166;3.640;2022-08-16T05:44:17;13.93;;;12.20;;
74102;SDS011;62853;46.166;3.640;2022-08-16T05:46:43;13.20;;;11.90;;
74102;SDS011;62853;46.166;3.640;2022-08-16T05:49:10;13.45;;;12.15;;
74102;SDS011;62853;46.166;3.640;2022-08-16T05:51:41;13.32;;;11.93;;
74102;SDS011;62853;46.166;3.640;2022-08-16T05:54:08;13.40;;;12.05;;
74102;SDS011;62853;46.166;3.640;2022-08-16T05:56:35;13.48;;;12.23;;
74102;SDS011;62853;46.166;3.640;2022-08-16T05:59:00;12.95;;;11.70;;
74102;SDS011;62853;46.166;3.640;2022-08-16T06:01:26;13.18;;;11.93;;
74102;SDS011;62853;46.166;3.640;2022-08-16T06:03:51;14.57;;;12.30;;
74102;SDS011;62853;46.166;3.640;2022-08-16T06:06:17;14.27;;;12.30;;
74102;SDS011;62853;46.166;3.640;2022-08-16T06:08:42;15.73;;;12.68;;
74102;SDS011;62853;46.166;3.640;2022-08-16T06:11:07;14.10;;;12.63;;
74102;SDS011;62853;46.166;3.640;2022-08-16T06:13:34;14.50;;;12.68;;
74102;SDS011;62853;46.166;3.640;2022-08-16T06:16:01;13.77;;;11.98;;
74102;SDS011;62853;46.166;3.640;2022-08-16T06:18:28;12.93;;;11.60;;
74102;SDS011;62853;46.166;3.640;2022-08-16T06:20:53;18.50;;;12.43;;
74102;SDS011;62853;46.166;3.640;2022-08-16T06:23:19;14.30;;;12.77;;
74102;SDS011;62853;46.166;3.640;2022-08-16T06:25:44;14.40;;;12.93;;
74102;SDS011;62853;46.166;3.640;2022-08-16T06:28:10;13.77;;;12.45;;
74102;SDS011;62853;46.166;3.640;2022-08-16T06:30:37;17.58;;;13.43;;
74102;SDS011;62853;46.166;3.640;2022-08-16T06:33:03;16.02;;;13.20;;
74102;SDS011;62853;46.166;3.640;2022-08-16T06:35:29;15.02;;;13.27;;
74102;SDS011;62853;46.166;3.640;2022-08-16T06:37:55;15.60;;;12.65;;
74102;SDS011;62853;46.166;3.640;2022-08-16T06:40:21;16.10;;;13.82;;
74102;SDS011;62853;46.166;3.640;2022-08-16T06:42:47;16.48;;;13.18;;
74102;SDS011;62853;46.166;3.640;2022-08-16T06:45:12;16.83;;;13.63;;
74102;SDS011;62853;46.166;3.640;2022-08-16T06:47:38;15.23;;;13.27;;
74102;SDS011;62853;46.166;3.640;2022-08-16T06:50:03;15.73;;;14.13;;
74102;SDS011;62853;46.166;3.640;2022-08-16T06:52:29;15.07;;;13.45;;
74102;SDS011;62853;46.166;3.640;2022-08-16T06:54:57;18.45;;;13.77;;
74102;SDS011;62853;46.166;3.640;2022-08-16T06:57:22;18.33;;;13.30;;
74102;SDS011;62853;46.166;3.640;2022-08-16T06:59:47;23.25;;;13.63;;
74102;SDS011;62853;46.166;3.640;2022-08-16T07:02:13;21.75;;;14.15;;
74102;SDS011;62853;46.166;3.640;2022-08-16T07:04:38;19.10;;;14.23;;
74102;SDS011;62853;46.166;3.640;2022-08-16T07:07:06;18.42;;;14.00;;
74102;SDS011;62853;46.166;3.640;2022-08-16T07:09:32;18.85;;;13.98;;
74102;SDS011;62853;46.166;3.640;2022-08-16T07:11:57;15.52;;;13.93;;
74102;SDS011;62853;46.166;3.640;2022-08-16T07:14:23;16.50;;;14.80;;
74102;SDS011;62853;46.166;3.640;2022-08-16T07:16:48;19.95;;;14.80;;
74102;SDS011;62853;46.166;3.640;2022-08-16T07:19:13;15.80;;;13.65;;
74102;SDS011;62853;46.166;3.640;2022-08-16T07:21:40;16.02;;;14.07;;
74102;SDS011;62853;46.166;3.640;2022-08-16T07:24:06;18.02;;;14.38;;
74102;SDS011;62853;46.166;3.640;2022-08-16T07:26:32;14.77;;;12.88;;
74102;SDS011;62853;46.166;3.640;2022-08-16T07:28:58;17.38;;;13.13;;
74102;SDS011;62853;46.166;3.640;2022-08-16T07:31:24;15.13;;;13.38;;
74102;SDS011;62853;46.166;3.640;2022-08-16T07:33:50;16.05;;;13.63;;
74102;SDS011;62853;46.166;3.640;2022-08-16T07:36:16;16.52;;;13.35;;
74102;SDS011;62853;46.166;3.640;2022-08-16T07:38:42;17.88;;;13.07;;
74102;SDS011;62853;46.166;3.640;2022-08-16T07:41:08;15.93;;;12.48;;
74102;SDS011;62853;46.166;3.640;2022-08-16T07:43:34;17.70;;;12.18;;
74102;SDS011;62853;46.166;3.640;2022-08-16T07:45:59;17.80;;;13.70;;
74102;SDS011;62853;46.166;3.640;2022-08-16T07:48:25;15.85;;;14.15;;
74102;SDS011;62853;46.166;3.640;2022-08-16T07:50:51;15.55;;;12.85;;
74102;SDS011;62853;46.166;3.640;2022-08-16T07:53:17;15.15;;;13.25;;
74102;SDS011;62853;46.166;3.640;2022-08-16T07:55:42;14.32;;;12.82;;
74102;SDS011;62853;46.166;3.640;2022-08-16T07:58:08;15.93;;;14.02;;
74102;SDS011;62853;46.166;3.640;2022-08-16T08:00:34;15.63;;;12.60;;
74102;SDS011;62853;46.166;3.640;2022-08-16T08:02:59;15.25;;;13.48;;
74102;SDS011;62853;46.166;3.640;2022-08-16T08:05:25;16.10;;;11.93;;
74102;SDS011;62853;46.166;3.640;2022-08-16T08:07:52;16.23;;;11.88;;
74102;SDS011;62853;46.166;3.640;2022-08-16T08:10:21;12.60;;;11.50;;
74102;SDS011;62853;46.166;3.640;2022-08-16T08:12:48;16.90;;;11.50;;
74102;SDS011;62853;46.166;3.640;2022-08-16T08:15:14;15.30;;;11.05;;
74102;SDS011;62853;46.166;3.640;2022-08-16T08:17:41;17.35;;;10.65;;
74102;SDS011;62853;46.166;3.640;2022-08-16T08:20:07;12.63;;;10.07;;
74102;SDS011;62853;46.166;3.640;2022-08-16T08:22:35;11.27;;;9.68;;
74102;SDS011;62853;46.166;3.640;2022-08-16T08:25:01;11.73;;;9.80;;
74102;SDS011;62853;46.166;3.640;2022-08-16T08:27:28;13.05;;;10.52;;
74102;SDS011;62853;46.166;3.640;2022-08-16T08:29:53;13.38;;;10.27;;
74102;SDS011;62853;46.166;3.640;2022-08-16T08:32:19;12.60;;;10.38;;
74102;SDS011;62853;46.166;3.640;2022-08-16T08:34:45;11.27;;;10.18;;
74102;SDS011;62853;46.166;3.640;2022-08-16T08:37:13;13.93;;;9.60;;
74102;SDS011;62853;46.166;3.640;2022-08-16T08:39:38;11.15;;;9.05;;
74102;SDS011;62853;46.166;3.640;2022-08-16T08:42:04;11.50;;;8.60;;
74102;SDS011;62853;46.166;3.640;2022-08-16T08:44:31;15.80;;;9.77;;
74102;SDS011;62853;46.166;3.640;2022-08-16T08:47:01;11.60;;;10.40;;
74102;SDS011;62853;46.166;3.640;2022-08-16T08:49:29;11.10;;;9.23;;
74102;SDS011;62853;46.166;3.640;2022-08-16T08:51:55;10.60;;;8.50;;
74102;SDS011;62853;46.166;3.640;2022-08-16T08:54:22;11.23;;;8.10;;
74102;SDS011;62853;46.166;3.640;2022-08-16T08:56:47;9.30;;;8.25;;
74102;SDS011;62853;46.166;3.640;2022-08-16T08:59:12;11.80;;;8.15;;
74102;SDS011;62853;46.166;3.640;2022-08-16T09:01:39;9.82;;;8.85;;
74102;SDS011;62853;46.166;3.640;2022-08-16T09:04:06;9.75;;;8.23;;
74102;SDS011;62853;46.166;3.640;2022-08-16T09:06:33;8.65;;;7.75;;
74102;SDS011;62853;46.166;3.640;2022-08-16T09:08:59;10.98;;;7.68;;
74102;SDS011;62853;46.166;3.640;2022-08-16T09:11:25;10.07;;;7.97;;
74102;SDS011;62853;46.166;3.640;2022-08-16T09:13:51;11.50;;;7.47;;
74102;SDS011;62853;46.166;3.640;2022-08-16T09:16:16;7.82;;;6.95;;
74102;SDS011;62853;46.166;3.640;2022-08-16T09:18:42;9.50;;;6.78;;
74102;SDS011;62853;46.166;3.640;2022-08-16T09:21:08;7.90;;;6.53;;
74102;SDS011;62853;46.166;3.640;2022-08-16T09:23:34;7.22;;;6.07;;
74102;SDS011;62853;46.166;3.640;2022-08-16T09:26:00;6.63;;;5.50;;
74102;SDS011;62853;46.166;3.640;2022-08-16T09:28:26;9.70;;;5.90;;
74102;SDS011;62853;46.166;3.640;2022-08-16T09:30:52;8.20;;;5.75;;
74102;SDS011;62853;46.166;3.640;2022-08-16T09:33:18;12.15;;;5.60;;
74102;SDS011;62853;46.166;3.640;2022-08-16T09:35:44;7.13;;;5.18;;
74102;SDS011;62853;46.166;3.640;2022-08-16T09:38:11;8.85;;;5.20;;
74102;SDS011;62853;46.166;3.640;2022-08-16T09:40:38;7.80;;;5.32;;
74102;SDS011;62853;46.166;3.640;2022-08-16T09:43:12;7.15;;;5.07;;
74102;SDS011;62853;46.166;3.640;2022-08-16T09:45:40;13.30;;;5.30;;
74102;SDS011;62853;46.166;3.640;2022-08-16T09:48:07;7.57;;;5.32;;
74102;SDS011;62853;46.166;3.640;2022-08-16T09:50:34;6.57;;;5.00;;
74102;SDS011;62853;46.166;3.640;2022-08-16T09:53:01;7.13;;;5.10;;
74102;SDS011;62853;46.166;3.640;2022-08-16T09:55:28;10.07;;;5.47;;
74102;SDS011;62853;46.166;3.640;2022-08-16T09:57:54;6.53;;;5.10;;
74102;SDS011;62853;46.166;3.640;2022-08-16T10:00:22;5.32;;;4.78;;
74102;SDS011;62853;46.166;3.640;2022-08-16T10:02:48;6.13;;;4.60;;
74102;SDS011;62853;46.166;3.640;2022-08-16T10:05:16;10.68;;;4.85;;
74102;SDS011;62853;46.166;3.640;2022-08-16T10:07:43;5.28;;;4.78;;
74102;SDS011;62853;46.166;3.640;2022-08-16T10:10:09;6.90;;;4.90;;
74102;SDS011;62853;46.166;3.640;2022-08-16T10:12:34;5.70;;;5.03;;
74102;SDS011;62853;46.166;3.640;2022-08-16T10:15:19;8.02;;;4.47;;
74102;SDS011;62853;46.166;3.640;2022-08-16T10:17:46;7.90;;;4.30;;
74102;SDS011;62853;46.166;3.640;2022-08-16T10:20:16;7.57;;;4.13;;
74102;SDS011;62853;46.166;3.640;2022-08-16T10:22:41;6.65;;;4.30;;
74102;SDS011;62853;46.166;3.640;2022-08-16T10:25:07;9.80;;;4.80;;
74102;SDS011;62853;46.166;3.640;2022-08-16T10:27:33;9.65;;;4.20;;
74102;SDS011;62853;46.166;3.640;2022-08-16T10:29:59;6.95;;;4.38;;
74102;SDS011;62853;46.166;3.640;2022-08-16T10:32:25;5.65;;;4.15;;
74102;SDS011;62853;46.166;3.640;2022-08-16T10:34:51;4.95;;;4.53;;
74102;SDS011;62853;46.166;3.640;2022-08-16T10:37:16;7.75;;;4.38;;
74102;SDS011;62853;46.166;3.640;2022-08-16T10:39:42;8.00;;;4.07;;
74102;SDS011;62853;46.166;3.640;2022-08-16T10:42:07;5.50;;;4.28;;
74102;SDS011;62853;46.166;3.640;2022-08-16T10:44:34;10.00;;;4.13;;
74102;SDS011;62853;46.166;3.640;2022-08-16T10:47:00;8.30;;;3.67;;
74102;SDS011;62853;46.166;3.640;2022-08-16T10:49:25;7.22;;;4.63;;
74102;SDS011;62853;46.166;3.640;2022-08-16T10:51:50;8.90;;;3.75;;
74102;SDS011;62853;46.166;3.640;2022-08-16T10:54:18;4.40;;;3.90;;
74102;SDS011;62853;46.166;3.640;2022-08-16T10:56:43;5.22;;;3.95;;
74102;SDS011;62853;46.166;3.640;2022-08-16T10:59:09;4.40;;;4.00;;
74102;SDS011;62853;46.166;3.640;2022-08-16T11:01:34;6.35;;;3.80;;
74102;SDS011;62853;46.166;3.640;2022-08-16T11:04:00;7.30;;;3.65;;
74102;SDS011;62853;46.166;3.640;2022-08-16T11:06:26;4.78;;;3.20;;
74102;SDS011;62853;46.166;3.640;2022-08-16T11:08:52;5.80;;;3.95;;
74102;SDS011;62853;46.166;3.640;2022-08-16T11:11:17;5.25;;;3.72;;
74102;SDS011;62853;46.166;3.640;2022-08-16T11:13:43;6.30;;;3.60;;
74102;SDS011;62853;46.166;3.640;2022-08-16T11:16:10;5.90;;;4.10;;
74102;SDS011;62853;46.166;3.640;2022-08-16T11:18:35;6.00;;;3.65;;
74102;SDS011;62853;46.166;3.640;2022-08-16T11:21:01;5.03;;;3.60;;
74102;SDS011;62853;46.166;3.640;2022-08-16T11:23:27;6.38;;;3.20;;
74102;SDS011;62853;46.166;3.640;2022-08-16T11:25:53;4.15;;;3.40;;
74102;SDS011;62853;46.166;3.640;2022-08-16T11:28:20;5.70;;;3.35;;
74102;SDS011;62853;46.166;3.640;2022-08-16T11:30:47;4.20;;;3.50;;
74102;SDS011;62853;46.166;3.640;2022-08-16T11:33:13;6.30;;;3.97;;
74102;SDS011;62853;46.166;3.640;2022-08-16T11:35:39;5.32;;;3.90;;
74102;SDS011;62853;46.166;3.640;2022-08-16T11:38:07;9.15;;;4.00;;
74102;SDS011;62853;46.166;3.640;2022-08-16T11:40:45;7.55;;;3.58;;
74102;SDS011;62853;46.166;3.640;2022-08-16T11:43:15;7.25;;;4.00;;
74102;SDS011;62853;46.166;3.640;2022-08-16T11:45:46;7.85;;;3.85;;
74102;SDS011;62853;46.166;3.640;2022-08-16T11:48:12;7.30;;;4.30;;
74102;SDS011;62853;46.166;3.640;2022-08-16T11:50:39;5.80;;;3.63;;
74102;SDS011;62853;46.166;3.640;2022-08-16T11:53:05;9.20;;;3.90;;
74102;SDS011;62853;46.166;3.640;2022-08-16T11:55:32;11.60;;;4.57;;
74102;SDS011;62853;46.166;3.640;2022-08-16T11:57:58;5.30;;;3.88;;
74102;SDS011;62853;46.166;3.640;2022-08-16T12:00:25;6.55;;;4.00;;
74102;SDS011;62853;46.166;3.640;2022-08-16T12:02:52;5.60;;;3.55;;
74102;SDS011;62853;46.166;3.640;2022-08-16T12:05:18;4.20;;;3.70;;
74102;SDS011;62853;46.166;3.640;2022-08-16T12:07:43;5.03;;;3.85;;
74102;SDS011;62853;46.166;3.640;2022-08-16T12:10:13;4.88;;;3.58;;
74102;SDS011;62853;46.166;3.640;2022-08-16T12:12:40;4.72;;;3.72;;
74102;SDS011;62853;46.166;3.640;2022-08-16T12:15:07;4.55;;;3.63;;
74102;SDS011;62853;46.166;3.640;2022-08-16T12:17:33;5.05;;;3.70;;
74102;SDS011;62853;46.166;3.640;2022-08-16T12:20:00;6.30;;;3.97;;
74102;SDS011;62853;46.166;3.640;2022-08-16T12:22:27;3.90;;;3.50;;
74102;SDS011;62853;46.166;3.640;2022-08-16T12:24:53;5.88;;;4.10;;
74102;SDS011;62853;46.166;3.640;2022-08-16T12:27:19;4.60;;;3.50;;
74102;SDS011;62853;46.166;3.640;2022-08-16T12:29:46;6.85;;;3.70;;
74102;SDS011;62853;46.166;3.640;2022-08-16T12:32:11;5.88;;;3.60;;
74102;SDS011;62853;46.166;3.640;2022-08-16T12:34:36;4.75;;;3.80;;
74102;SDS011;62853;46.166;3.640;2022-08-16T12:37:02;9.50;;;3.83;;
74102;SDS011;62853;46.166;3.640;2022-08-16T12:39:28;7.13;;;4.00;;
74102;SDS011;62853;46.166;3.640;2022-08-16T12:41:54;7.50;;;3.70;;
74102;SDS011;62853;46.166;3.640;2022-08-16T12:44:20;6.55;;;3.35;;
74102;SDS011;62853;46.166;3.640;2022-08-16T12:46:45;5.80;;;3.45;;
74102;SDS011;62853;46.166;3.640;2022-08-16T12:49:31;5.47;;;3.50;;
74102;SDS011;62853;46.166;3.640;2022-08-16T12:51:56;3.55;;;3.25;;
74102;SDS011;62853;46.166;3.640;2022-08-16T12:54:22;4.28;;;3.33;;
74102;SDS011;62853;46.166;3.640;2022-08-16T12:56:48;4.78;;;3.22;;
74102;SDS011;62853;46.166;3.640;2022-08-16T12:59:13;6.15;;;3.20;;
74102;SDS011;62853;46.166;3.640;2022-08-16T13:01:39;3.55;;;2.88;;
74102;SDS011;62853;46.166;3.640;2022-08-16T13:04:06;4.30;;;3.58;;
74102;SDS011;62853;46.166;3.640;2022-08-16T13:06:32;4.57;;;3.10;;
74102;SDS011;62853;46.166;3.640;2022-08-16T13:09:00;5.00;;;3.20;;
74102;SDS011;62853;46.166;3.640;2022-08-16T13:11:41;5.65;;;3.35;;
74102;SDS011;62853;46.166;3.640;2022-08-16T13:14:12;5.00;;;3.30;;
74102;SDS011;62853;46.166;3.640;2022-08-16T13:16:38;8.43;;;3.47;;
74102;SDS011;62853;46.166;3.640;2022-08-16T13:19:03;5.60;;;3.08;;
74102;SDS011;62853;46.166;3.640;2022-08-16T13:21:28;6.18;;;3.28;;
74102;SDS011;62853;46.166;3.640;2022-08-16T13:23:54;5.28;;;3.35;;
74102;SDS011;62853;46.166;3.640;2022-08-16T13:26:19;3.88;;;3.38;;
74102;SDS011;62853;46.166;3.640;2022-08-16T13:28:45;4.85;;;3.08;;
74102;SDS011;62853;46.166;3.640;2022-08-16T13:31:10;9.18;;;3.20;;
74102;SDS011;62853;46.166;3.640;2022-08-16T13:33:35;4.30;;;3.22;;
74102;SDS011;62853;46.166;3.640;2022-08-16T13:36:02;4.03;;;3.40;;
74102;SDS011;62853;46.166;3.640;2022-08-16T13:38:31;5.43;;;3.30;;
74102;SDS011;62853;46.166;3.640;2022-08-16T13:40:58;5.43;;;3.40;;
74102;SDS011;62853;46.166;3.640;2022-08-16T13:43:24;4.60;;;3.08;;
74102;SDS011;62853;46.166;3.640;2022-08-16T13:45:51;3.95;;;3.22;;
74102;SDS011;62853;46.166;3.640;2022-08-16T13:48:16;6.05;;;3.33;;
74102;SDS011;62853;46.166;3.640;2022-08-16T13:50:42;5.40;;;2.92;;
74102;SDS011;62853;46.166;3.640;2022-08-16T13:53:08;3.60;;;3.25;;
74102;SDS011;62853;46.166;3.640;2022-08-16T13:55:33;7.82;;;3.78;;
74102;SDS011;62853;46.166;3.640;2022-08-16T13:57:59;3.47;;;3.17;;
74102;SDS011;62853;46.166;3.640;2022-08-16T14:00:24;3.63;;;3.05;;
74102;SDS011;62853;46.166;3.640;2022-08-16T14:02:51;5.93;;;3.20;;
74102;SDS011;62853;46.166;3.640;2022-08-16T14:05:16;4.22;;;3.20;;
74102;SDS011;62853;46.166;3.640;2022-08-16T14:07:42;3.95;;;3.22;;
74102;SDS011;62853;46.166;3.640;2022-08-16T14:10:08;5.00;;;3.40;;
74102;SDS011;62853;46.166;3.640;2022-08-16T14:12:36;5.00;;;3.20;;
74102;SDS011;62853;46.166;3.640;2022-08-16T14:15:03;5.25;;;3.45;;
74102;SDS011;62853;46.166;3.640;2022-08-16T14:17:30;5.78;;;3.60;;
74102;SDS011;62853;46.166;3.640;2022-08-16T14:19:56;4.45;;;3.50;;
74102;SDS011;62853;46.166;3.640;2022-08-16T14:22:31;4.25;;;3.25;;
74102;SDS011;62853;46.166;3.640;2022-08-16T14:25:01;4.70;;;3.20;;
74102;SDS011;62853;46.166;3.640;2022-08-16T14:27:28;5.10;;;3.38;;
74102;SDS011;62853;46.166;3.640;2022-08-16T14:29:55;5.75;;;3.75;;
74102;SDS011;62853;46.166;3.640;2022-08-16T14:32:24;5.60;;;3.83;;